George, North Carolina
Current Conditions -  °F | °C
As of 8:15 PM on Monday 20 Oct 2014 (Local Time) from KASJ Reporting Station
Broken Clouds Broken Clouds  
Wind Chill: 54°   Ceiling: 6000
Heat Index: 54°   Visibility: 10mi
Dew Point: 51°   Wind: 0mph
Humidity: 91%   Direction: NA
Pressure: 30.02"   Gusts: NA
Location:  36.3077°N, 77.185°W
Report Text: KASJ 210015Z AUTO 00000KT 10SM BKN060 12/11 A3002 RMK AO2 T01200105
Loading
Personal Weather Stations






























Interactive Weather Map
Tropical Storm Tracking
New forecast layout! Learn more

10-Day Weather Forecast

Advertisements
Track Severe Weather on mobile